sensor_id;sensor_type;location;lat;lon;timestamp;temperature;humidity
13091;DHT22;6611;52.604;13.438;2023-10-13T00:04:52;13.88;88.82
13091;DHT22;6611;52.604;13.438;2023-10-13T00:09:54;13.83;89.45
13091;DHT22;6611;52.604;13.438;2023-10-13T00:14:56;13.83;89.36
13091;DHT22;6611;52.604;13.438;2023-10-13T00:20:06;13.90;89.34
13091;DHT22;6611;52.604;13.438;2023-10-13T00:25:13;13.93;88.84
13091;DHT22;6611;52.604;13.438;2023-10-13T00:30:19;13.90;88.87
13091;DHT22;6611;52.604;13.438;2023-10-13T00:35:26;13.87;88.74
13091;DHT22;6611;52.604;13.438;2023-10-13T00:40:30;13.81;88.59
13091;DHT22;6611;52.604;13.438;2023-10-13T00:45:52;13.83;88.46
13091;DHT22;6611;52.604;13.438;2023-10-13T00:51:02;13.74;88.87
13091;DHT22;6611;52.604;13.438;2023-10-13T00:56:07;13.80;88.82
13091;DHT22;6611;52.604;13.438;2023-10-13T01:01:19;13.84;88.48
13091;DHT22;6611;52.604;13.438;2023-10-13T01:06:24;13.80;88.81
13091;DHT22;6611;52.604;13.438;2023-10-13T01:11:26;13.80;88.71
13091;DHT22;6611;52.604;13.438;2023-10-13T01:16:30;13.73;89.01
13091;DHT22;6611;52.604;13.438;2023-10-13T01:21:34;13.81;88.97
13091;DHT22;6611;52.604;13.438;2023-10-13T01:26:37;13.73;89.25
13091;DHT22;6611;52.604;13.438;2023-10-13T01:31:41;13.71;89.32
13091;DHT22;6611;52.604;13.438;2023-10-13T01:36:48;13.71;89.17
13091;DHT22;6611;52.604;13.438;2023-10-13T01:41:52;13.74;89.10
13091;DHT22;6611;52.604;13.438;2023-10-13T01:46:55;13.74;89.08
13091;DHT22;6611;52.604;13.438;2023-10-13T01:51:59;13.78;88.87
13091;DHT22;6611;52.604;13.438;2023-10-13T01:57:05;13.74;88.80
13091;DHT22;6611;52.604;13.438;2023-10-13T02:02:07;13.71;88.93
13091;DHT22;6611;52.604;13.438;2023-10-13T02:07:08;13.73;88.92
13091;DHT22;6611;52.604;13.438;2023-10-13T02:12:16;13.73;88.94
13091;DHT22;6611;52.604;13.438;2023-10-13T02:17:18;13.66;89.03
13091;DHT22;6611;52.604;13.438;2023-10-13T02:22:21;13.73;88.89
13091;DHT22;6611;52.604;13.438;2023-10-13T02:27:29;13.67;89.12
13091;DHT22;6611;52.604;13.438;2023-10-13T02:32:41;13.60;89.48
13091;DHT22;6611;52.604;13.438;2023-10-13T02:37:44;13.50;89.93
13091;DHT22;6611;52.604;13.438;2023-10-13T02:42:55;13.56;90.21
13091;DHT22;6611;52.604;13.438;2023-10-13T02:47:57;13.58;90.18
13091;DHT22;6611;52.604;13.438;2023-10-13T02:53:12;13.67;90.03
13091;DHT22;6611;52.604;13.438;2023-10-13T02:58:15;13.73;89.97
13091;DHT22;6611;52.604;13.438;2023-10-13T03:03:17;13.67;90.27
13091;DHT22;6611;52.604;13.438;2023-10-13T03:08:19;13.69;90.35
13091;DHT22;6611;52.604;13.438;2023-10-13T03:13:28;13.73;90.14
13091;DHT22;6611;52.604;13.438;2023-10-13T03:18:33;13.80;90.18
13091;DHT22;6611;52.604;13.438;2023-10-13T03:23:36;13.74;90.32
13091;DHT22;6611;52.604;13.438;2023-10-13T03:28:48;13.78;90.28
13091;DHT22;6611;52.604;13.438;2023-10-13T03:33:52;13.83;90.19
13091;DHT22;6611;52.604;13.438;2023-10-13T03:38:59;13.83;90.44
13091;DHT22;6611;52.604;13.438;2023-10-13T03:44:02;13.85;90.42
13091;DHT22;6611;52.604;13.438;2023-10-13T03:49:14;13.83;90.53
13091;DHT22;6611;52.604;13.438;2023-10-13T03:54:20;13.88;90.56
13091;DHT22;6611;52.604;13.438;2023-10-13T03:59:23;13.93;90.36
13091;DHT22;6611;52.604;13.438;2023-10-13T04:04:35;13.88;90.77
13091;DHT22;6611;52.604;13.438;2023-10-13T04:09:42;13.95;90.61
13091;DHT22;6611;52.604;13.438;2023-10-13T04:15:12;14.01;90.51
13091;DHT22;6611;52.604;13.438;2023-10-13T04:20:18;14.01;90.55
13091;DHT22;6611;52.604;13.438;2023-10-13T04:25:33;14.10;90.27
13091;DHT22;6611;52.604;13.438;2023-10-13T04:30:54;14.04;90.70
13091;DHT22;6611;52.604;13.438;2023-10-13T04:36:01;14.07;90.82
13091;DHT22;6611;52.604;13.438;2023-10-13T04:41:14;14.10;91.02
13091;DHT22;6611;52.604;13.438;2023-10-13T04:46:24;14.15;90.99
13091;DHT22;6611;52.604;13.438;2023-10-13T04:51:55;14.17;91.04
13091;DHT22;6611;52.604;13.438;2023-10-13T04:57:01;14.21;90.99
13091;DHT22;6611;52.604;13.438;2023-10-13T05:02:21;14.32;91.06
13091;DHT22;6611;52.604;13.438;2023-10-13T05:07:41;14.35;90.92
13091;DHT22;6611;52.604;13.438;2023-10-13T05:13:00;14.29;91.21
13091;DHT22;6611;52.604;13.438;2023-10-13T05:18:20;14.30;91.29
13091;DHT22;6611;52.604;13.438;2023-10-13T05:23:40;14.39;91.06
13091;DHT22;6611;52.604;13.438;2023-10-13T05:28:59;14.40;90.94
13091;DHT22;6611;52.604;13.438;2023-10-13T05:34:19;14.42;91.07
13091;DHT22;6611;52.604;13.438;2023-10-13T05:39:38;14.39;91.24
13091;DHT22;6611;52.604;13.438;2023-10-13T05:44:57;14.50;91.17
13091;DHT22;6611;52.604;13.438;2023-10-13T05:50:25;14.57;90.99
13091;DHT22;6611;52.604;13.438;2023-10-13T05:55:44;14.53;91.33
13091;DHT22;6611;52.604;13.438;2023-10-13T06:01:03;14.57;91.32
13091;DHT22;6611;52.604;13.438;2023-10-13T06:06:24;14.67;91.26
13091;DHT22;6611;52.604;13.438;2023-10-13T06:11:43;14.70;91.48
13091;DHT22;6611;52.604;13.438;2023-10-13T06:17:02;14.84;91.41
13091;DHT22;6611;52.604;13.438;2023-10-13T06:22:22;15.01;91.12
13091;DHT22;6611;52.604;13.438;2023-10-13T06:27:41;15.16;90.59
13091;DHT22;6611;52.604;13.438;2023-10-13T06:33:00;15.16;90.70
13091;DHT22;6611;52.604;13.438;2023-10-13T06:38:06;15.16;90.61
13091;DHT22;6611;52.604;13.438;2023-10-13T06:43:21;15.21;90.62
13091;DHT22;6611;52.604;13.438;2023-10-13T06:48:24;15.35;90.30
13091;DHT22;6611;52.604;13.438;2023-10-13T06:53:27;15.47;89.84
13091;DHT22;6611;52.604;13.438;2023-10-13T06:58:30;15.60;89.45
13091;DHT22;6611;52.604;13.438;2023-10-13T07:03:33;15.84;89.07
13091;DHT22;6611;52.604;13.438;2023-10-13T07:08:36;16.08;88.22
13091;DHT22;6611;52.604;13.438;2023-10-13T07:13:38;16.28;88.37
13091;DHT22;6611;52.604;13.438;2023-10-13T07:18:47;16.32;87.83
13091;DHT22;6611;52.604;13.438;2023-10-13T07:23:54;16.43;87.47
13091;DHT22;6611;52.604;13.438;2023-10-13T07:29:09;16.61;86.71
13091;DHT22;6611;52.604;13.438;2023-10-13T07:34:11;16.66;86.16
13091;DHT22;6611;52.604;13.438;2023-10-13T07:39:28;16.59;86.53
13091;DHT22;6611;52.604;13.438;2023-10-13T07:44:38;16.59;87.03
13091;DHT22;6611;52.604;13.438;2023-10-13T07:49:50;16.74;86.32
13091;DHT22;6611;52.604;13.438;2023-10-13T07:54:56;16.81;86.02
13091;DHT22;6611;52.604;13.438;2023-10-13T08:00:12;16.83;86.20
13091;DHT22;6611;52.604;13.438;2023-10-13T08:05:26;16.98;85.57
13091;DHT22;6611;52.604;13.438;2023-10-13T08:10:41;17.09;85.56
13091;DHT22;6611;52.604;13.438;2023-10-13T08:15:45;17.22;84.99
13091;DHT22;6611;52.604;13.438;2023-10-13T08:20:48;17.25;85.12
13091;DHT22;6611;52.604;13.438;2023-10-13T08:25:55;17.26;85.07
13091;DHT22;6611;52.604;13.438;2023-10-13T08:31:30;17.42;84.75
13091;DHT22;6611;52.604;13.438;2023-10-13T08:36:32;17.51;84.39
13091;DHT22;6611;52.604;13.438;2023-10-13T08:41:40;17.53;84.06
13091;DHT22;6611;52.604;13.438;2023-10-13T08:46:54;17.64;83.83
13091;DHT22;6611;52.604;13.438;2023-10-13T08:52:09;17.63;83.59
13091;DHT22;6611;52.604;13.438;2023-10-13T08:57:27;17.80;83.65
13091;DHT22;6611;52.604;13.438;2023-10-13T09:02:41;17.71;83.43
13091;DHT22;6611;52.604;13.438;2023-10-13T09:08:12;17.81;83.55
13091;DHT22;6611;52.604;13.438;2023-10-13T09:13:20;17.81;83.52
13091;DHT22;6611;52.604;13.438;2023-10-13T09:18:26;17.84;83.18
13091;DHT22;6611;52.604;13.438;2023-10-13T09:23:47;17.94;83.02
13091;DHT22;6611;52.604;13.438;2023-10-13T09:28:49;17.91;82.73
13091;DHT22;6611;52.604;13.438;2023-10-13T09:33:53;17.78;83.63
13091;DHT22;6611;52.604;13.438;2023-10-13T09:38:58;17.84;83.52
13091;DHT22;6611;52.604;13.438;2023-10-13T09:44:13;17.80;84.23
13091;DHT22;6611;52.604;13.438;2023-10-13T09:49:22;17.95;83.75
13091;DHT22;6611;52.604;13.438;2023-10-13T10:00:14;17.91;83.99
13091;DHT22;6611;52.604;13.438;2023-10-13T10:05:30;17.88;84.17
13091;DHT22;6611;52.604;13.438;2023-10-13T10:10:51;17.82;84.61
13091;DHT22;6611;52.604;13.438;2023-10-13T10:15:59;17.82;84.75
13091;DHT22;6611;52.604;13.438;2023-10-13T10:21:05;17.84;84.93
13091;DHT22;6611;52.604;13.438;2023-10-13T10:26:12;17.89;84.87
13091;DHT22;6611;52.604;13.438;2023-10-13T10:31:15;18.01;84.68
13091;DHT22;6611;52.604;13.438;2023-10-13T10:36:28;17.99;84.97
13091;DHT22;6611;52.604;13.438;2023-10-13T10:41:31;17.91;85.24
13091;DHT22;6611;52.604;13.438;2023-10-13T10:46:44;17.92;85.40
13091;DHT22;6611;52.604;13.438;2023-10-13T10:51:58;17.98;85.82
13091;DHT22;6611;52.604;13.438;2023-10-13T10:57:05;17.88;86.78
13091;DHT22;6611;52.604;13.438;2023-10-13T11:02:17;17.92;87.30
13091;DHT22;6611;52.604;13.438;2023-10-13T11:07:27;18.02;87.16
13091;DHT22;6611;52.604;13.438;2023-10-13T11:12:31;18.08;86.96
13091;DHT22;6611;52.604;13.438;2023-10-13T11:17:34;18.04;87.63
13091;DHT22;6611;52.604;13.438;2023-10-13T11:22:51;18.06;87.74
13091;DHT22;6611;52.604;13.438;2023-10-13T11:27:55;18.22;87.06
13091;DHT22;6611;52.604;13.438;2023-10-13T11:32:59;18.25;86.84
13091;DHT22;6611;52.604;13.438;2023-10-13T11:38:01;18.25;87.23
13091;DHT22;6611;52.604;13.438;2023-10-13T11:43:06;18.34;87.06
13091;DHT22;6611;52.604;13.438;2023-10-13T11:48:14;18.42;86.54
13091;DHT22;6611;52.604;13.438;2023-10-13T11:53:16;18.43;86.68
13091;DHT22;6611;52.604;13.438;2023-10-13T11:58:19;18.50;86.46
13091;DHT22;6611;52.604;13.438;2023-10-13T12:03:21;18.57;86.15
13091;DHT22;6611;52.604;13.438;2023-10-13T12:08:40;18.60;85.86
13091;DHT22;6611;52.604;13.438;2023-10-13T12:13:51;18.70;85.65
13091;DHT22;6611;52.604;13.438;2023-10-13T12:18:52;18.79;85.24
13091;DHT22;6611;52.604;13.438;2023-10-13T12:23:55;18.88;84.91
13091;DHT22;6611;52.604;13.438;2023-10-13T12:28:58;18.98;84.59
13091;DHT22;6611;52.604;13.438;2023-10-13T12:34:06;19.05;84.11
13091;DHT22;6611;52.604;13.438;2023-10-13T12:39:18;19.11;84.32
13091;DHT22;6611;52.604;13.438;2023-10-13T12:44:39;19.22;83.54
13091;DHT22;6611;52.604;13.438;2023-10-13T12:49:58;19.33;83.43
13091;DHT22;6611;52.604;13.438;2023-10-13T12:55:05;19.46;82.65
13091;DHT22;6611;52.604;13.438;2023-10-13T13:00:12;19.47;83.00
13091;DHT22;6611;52.604;13.438;2023-10-13T13:05:26;19.58;82.52
13091;DHT22;6611;52.604;13.438;2023-10-13T13:10:31;19.67;82.02
13091;DHT22;6611;52.604;13.438;2023-10-13T13:15:40;19.73;81.81
13091;DHT22;6611;52.604;13.438;2023-10-13T13:20:42;19.89;81.33
13091;DHT22;6611;52.604;13.438;2023-10-13T13:25:53;20.10;80.57
13091;DHT22;6611;52.604;13.438;2023-10-13T13:30:59;20.26;80.20
13091;DHT22;6611;52.604;13.438;2023-10-13T13:36:01;20.30;79.84
13091;DHT22;6611;52.604;13.438;2023-10-13T13:41:04;20.33;79.33
13091;DHT22;6611;52.604;13.438;2023-10-13T13:46:11;20.53;79.22
13091;DHT22;6611;52.604;13.438;2023-10-13T13:51:13;20.61;77.58
13091;DHT22;6611;52.604;13.438;2023-10-13T13:56:16;20.64;77.91
13091;DHT22;6611;52.604;13.438;2023-10-13T14:01:20;20.65;77.40
13091;DHT22;6611;52.604;13.438;2023-10-13T14:06:23;20.70;76.84
13091;DHT22;6611;52.604;13.438;2023-10-13T14:11:30;20.68;76.39
13091;DHT22;6611;52.604;13.438;2023-10-13T14:16:55;20.84;76.16
13091;DHT22;6611;52.604;13.438;2023-10-13T14:22:07;20.84;76.13
13091;DHT22;6611;52.604;13.438;2023-10-13T14:27:12;20.77;76.30
13091;DHT22;6611;52.604;13.438;2023-10-13T14:32:20;20.88;75.39
13091;DHT22;6611;52.604;13.438;2023-10-13T14:37:25;20.95;74.87
13091;DHT22;6611;52.604;13.438;2023-10-13T14:42:31;20.98;74.49
13091;DHT22;6611;52.604;13.438;2023-10-13T14:47:37;20.99;74.37
13091;DHT22;6611;52.604;13.438;2023-10-13T14:52:39;20.95;74.75
13091;DHT22;6611;52.604;13.438;2023-10-13T14:57:43;20.95;74.53
13091;DHT22;6611;52.604;13.438;2023-10-13T15:02:46;21.00;74.22
13091;DHT22;6611;52.604;13.438;2023-10-13T15:07:49;20.96;74.47
13091;DHT22;6611;52.604;13.438;2023-10-13T15:12:51;20.95;74.05
13091;DHT22;6611;52.604;13.438;2023-10-13T15:17:54;20.92;74.07
13091;DHT22;6611;52.604;13.438;2023-10-13T15:22:56;20.85;74.00
13091;DHT22;6611;52.604;13.438;2023-10-13T15:28:01;20.89;73.93
13091;DHT22;6611;52.604;13.438;2023-10-13T15:33:05;20.82;73.73
13091;DHT22;6611;52.604;13.438;2023-10-13T15:38:06;20.77;74.04
13091;DHT22;6611;52.604;13.438;2023-10-13T15:43:08;20.77;73.44
13091;DHT22;6611;52.604;13.438;2023-10-13T15:48:11;20.82;73.07
13091;DHT22;6611;52.604;13.438;2023-10-13T15:53:15;20.71;72.89
13091;DHT22;6611;52.604;13.438;2023-10-13T15:58:16;20.65;72.59
13091;DHT22;6611;52.604;13.438;2023-10-13T16:03:19;20.67;73.02
13091;DHT22;6611;52.604;13.438;2023-10-13T16:08:23;20.70;72.40
13091;DHT22;6611;52.604;13.438;2023-10-13T16:13:24;20.65;72.63
13091;DHT22;6611;52.604;13.438;2023-10-13T16:18:27;20.58;72.46
13091;DHT22;6611;52.604;13.438;2023-10-13T16:23:32;20.55;72.31
13091;DHT22;6611;52.604;13.438;2023-10-13T16:28:34;20.55;72.27
13091;DHT22;6611;52.604;13.438;2023-10-13T16:33:37;20.54;72.24
13091;DHT22;6611;52.604;13.438;2023-10-13T16:38:40;20.54;71.85
13091;DHT22;6611;52.604;13.438;2023-10-13T16:43:46;20.51;71.45
13091;DHT22;6611;52.604;13.438;2023-10-13T16:48:49;20.51;71.45
13091;DHT22;6611;52.604;13.438;2023-10-13T16:53:50;20.51;70.90
13091;DHT22;6611;52.604;13.438;2023-10-13T16:58:52;20.50;70.30
13091;DHT22;6611;52.604;13.438;2023-10-13T17:03:56;20.60;69.79
13091;DHT22;6611;52.604;13.438;2023-10-13T17:08:58;20.65;69.16
13091;DHT22;6611;52.604;13.438;2023-10-13T17:13:59;20.71;69.02
13091;DHT22;6611;52.604;13.438;2023-10-13T17:19:07;20.77;68.60
13091;DHT22;6611;52.604;13.438;2023-10-13T17:24:10;20.70;68.53
13091;DHT22;6611;52.604;13.438;2023-10-13T17:29:11;20.72;68.18
13091;DHT22;6611;52.604;13.438;2023-10-13T17:34:14;20.72;68.06
13091;DHT22;6611;52.604;13.438;2023-10-13T17:39:17;20.71;68.04
13091;DHT22;6611;52.604;13.438;2023-10-13T17:44:19;20.70;67.57
13091;DHT22;6611;52.604;13.438;2023-10-13T17:49:23;20.75;66.92
13091;DHT22;6611;52.604;13.438;2023-10-13T17:54:25;20.89;66.73
13091;DHT22;6611;52.604;13.438;2023-10-13T17:59:26;20.87;66.18
13091;DHT22;6611;52.604;13.438;2023-10-13T18:04:29;20.91;66.33
13091;DHT22;6611;52.604;13.438;2023-10-13T18:09:31;20.84;66.44
13091;DHT22;6611;52.604;13.438;2023-10-13T18:14:33;20.87;66.69
13091;DHT22;6611;52.604;13.438;2023-10-13T18:19:36;20.78;66.92
13091;DHT22;6611;52.604;13.438;2023-10-13T18:24:38;20.78;66.58
13091;DHT22;6611;52.604;13.438;2023-10-13T18:29:40;20.84;66.05
13091;DHT22;6611;52.604;13.438;2023-10-13T18:34:45;20.81;66.31
13091;DHT22;6611;52.604;13.438;2023-10-13T18:39:48;20.79;65.96
13091;DHT22;6611;52.604;13.438;2023-10-13T18:44:50;20.84;65.73
13091;DHT22;6611;52.604;13.438;2023-10-13T18:49:58;20.89;65.14
13091;DHT22;6611;52.604;13.438;2023-10-13T18:55:01;20.88;64.56
13091;DHT22;6611;52.604;13.438;2023-10-13T19:00:06;20.89;64.90
13091;DHT22;6611;52.604;13.438;2023-10-13T19:05:16;20.96;64.00
13091;DHT22;6611;52.604;13.438;2023-10-13T19:10:17;21.02;64.12
13091;DHT22;6611;52.604;13.438;2023-10-13T19:15:20;20.95;63.92
13091;DHT22;6611;52.604;13.438;2023-10-13T19:20:26;20.92;63.82
13091;DHT22;6611;52.604;13.438;2023-10-13T19:25:34;20.95;64.02
13091;DHT22;6611;52.604;13.438;2023-10-13T19:30:38;20.91;63.90
13091;DHT22;6611;52.604;13.438;2023-10-13T19:35:43;20.85;64.08
13091;DHT22;6611;52.604;13.438;2023-10-13T19:40:45;20.89;63.55
13091;DHT22;6611;52.604;13.438;2023-10-13T19:45:46;20.92;63.16
13091;DHT22;6611;52.604;13.438;2023-10-13T19:50:51;20.96;63.13
13091;DHT22;6611;52.604;13.438;2023-10-13T19:55:54;20.94;63.10
13091;DHT22;6611;52.604;13.438;2023-10-13T20:01:06;20.88;63.06
13091;DHT22;6611;52.604;13.438;2023-10-13T20:06:10;20.91;62.59
13091;DHT22;6611;52.604;13.438;2023-10-13T20:11:12;20.89;62.98
13091;DHT22;6611;52.604;13.438;2023-10-13T20:16:16;20.91;62.64
13091;DHT22;6611;52.604;13.438;2023-10-13T20:21:21;20.92;62.33
13091;DHT22;6611;52.604;13.438;2023-10-13T20:26:24;20.92;61.99
13091;DHT22;6611;52.604;13.438;2023-10-13T20:31:27;20.95;61.89
13091;DHT22;6611;52.604;13.438;2023-10-13T20:36:37;20.98;61.90
13091;DHT22;6611;52.604;13.438;2023-10-13T20:41:41;20.89;61.61
13091;DHT22;6611;52.604;13.438;2023-10-13T20:46:42;20.82;62.08
13091;DHT22;6611;52.604;13.438;2023-10-13T20:51:45;20.82;61.58
13091;DHT22;6611;52.604;13.438;2023-10-13T20:56:47;20.82;62.21
13091;DHT22;6611;52.604;13.438;2023-10-13T21:01:49;20.79;62.32
13091;DHT22;6611;52.604;13.438;2023-10-13T21:06:52;20.77;62.05
13091;DHT22;6611;52.604;13.438;2023-10-13T21:11:53;20.82;61.59
13091;DHT22;6611;52.604;13.438;2023-10-13T21:16:55;20.81;61.34
13091;DHT22;6611;52.604;13.438;2023-10-13T21:21:58;20.84;61.55
13091;DHT22;6611;52.604;13.438;2023-10-13T21:26:59;20.85;60.86
13091;DHT22;6611;52.604;13.438;2023-10-13T21:32:01;20.81;60.71
13091;DHT22;6611;52.604;13.438;2023-10-13T21:37:04;20.84;61.12
13091;DHT22;6611;52.604;13.438;2023-10-13T21:42:06;20.78;61.08
13091;DHT22;6611;52.604;13.438;2023-10-13T21:47:08;20.75;60.97
13091;DHT22;6611;52.604;13.438;2023-10-13T21:52:13;20.72;61.32
13091;DHT22;6611;52.604;13.438;2023-10-13T21:57:16;20.67;61.30
13091;DHT22;6611;52.604;13.438;2023-10-13T22:02:18;20.65;61.64
13091;DHT22;6611;52.604;13.438;2023-10-13T22:07:23;20.54;62.03
13091;DHT22;6611;52.604;13.438;2023-10-13T22:12:24;20.48;62.17
13091;DHT22;6611;52.604;13.438;2023-10-13T22:17:26;20.33;62.70
13091;DHT22;6611;52.604;13.438;2023-10-13T22:22:30;20.29;63.34
13091;DHT22;6611;52.604;13.438;2023-10-13T22:27:33;20.10;63.50
13091;DHT22;6611;52.604;13.438;2023-10-13T22:32:36;19.99;63.54
13091;DHT22;6611;52.604;13.438;2023-10-13T22:37:39;19.98;64.29
13091;DHT22;6611;52.604;13.438;2023-10-13T22:42:41;19.93;64.17
13091;DHT22;6611;52.604;13.438;2023-10-13T22:47:45;19.91;64.67
13091;DHT22;6611;52.604;13.438;2023-10-13T22:52:48;19.89;64.19
13091;DHT22;6611;52.604;13.438;2023-10-13T22:57:51;19.92;64.50
13091;DHT22;6611;52.604;13.438;2023-10-13T23:02:54;19.96;64.30
13091;DHT22;6611;52.604;13.438;2023-10-13T23:07:57;20.02;63.80
13091;DHT22;6611;52.604;13.438;2023-10-13T23:13:08;19.96;64.91
13091;DHT22;6611;52.604;13.438;2023-10-13T23:18:10;19.92;65.07
13091;DHT22;6611;52.604;13.438;2023-10-13T23:23:14;19.84;67.01
13091;DHT22;6611;52.604;13.438;2023-10-13T23:28:17;19.75;68.07
13091;DHT22;6611;52.604;13.438;2023-10-13T23:33:19;19.60;68.54
13091;DHT22;6611;52.604;13.438;2023-10-13T23:38:22;19.40;70.38
13091;DHT22;6611;52.604;13.438;2023-10-13T23:43:27;19.23;71.26
13091;DHT22;6611;52.604;13.438;2023-10-13T23:48:30;19.12;71.67
13091;DHT22;6611;52.604;13.438;2023-10-13T23:53:35;19.06;71.20
13091;DHT22;6611;52.604;13.438;2023-10-13T23:58:39;19.05;70.67
